Baker, NV

1:31 AM PDT on October 26, 2014 (GMT -0700)
Hwy 488 | Change Station
CLOSE
Current Station
Personal Weather Station
Location: Baker, NV
Elevation: 6437 ft
Nearby Weather Stations

Elev 6437 ft 39.01 °N, 114.20 °W | Updated 5 minutes ago

Clear
Clear
52.9 °F
Feels Like 52.9 °F
N
11.9
Wind Variable Wind from West

Today
High -- | Low -- °F
--% Chance of Precip.
Yesterday
High -- | Low -- °F
Precip. -- in
6:57 AM 5:42 PM
Waxing Crescent, 6% visible
Pressure 29.82 in
Visibility 10.0 miles
Clouds Clear
Dew Point 34 °F
Humidity 48%
Rainfall 0.00 in
Snow Depth Not available.
UV 0 out of 12
Pollen 3.60 out of 12
Air Quality Not available.
Flu Activity No Activity
METAR KELY 260753Z AUTO 17011KT 10SM CLR 10/M01 A3006 RMK AO2 SLP097 T01001006 402170056

More Conditions Fewer Conditions

Pressure 29.82 in
Visibility 10.0 miles
Clouds Clear
Dew Point 34 °F
Humidity 48%
Rainfall 0.00 in
Snow Depth Not available.
UV 0 out of 12
Pollen 3.60 out of 12
Air Quality Not available.
Flu Activity No Activity
METAR KELY 260753Z AUTO 17011KT 10SM CLR 10/M01 A3006 RMK AO2 SLP097 T01001006 402170056

More Conditions Fewer Conditions

10-Day Weather Forecast

Almanac

Astronomy

Oct. 26, 2014 Rise Set
Actual Time 6:57 AM PDT 5:42 PM PDT
Civil Twilight 6:30 AM PDT 6:10 PM PDT
Nautical Twilight 5:58 AM PDT 6:41 PM PDT
Astronomical Twilight 5:27 AM PDT 7:12 PM PDT
Moon 9:38 AM PDT 7:59 PM PDT
Length of Visible Light 11h 40m
Length of Day
10h 45m
Tomorrow will be 2m 19s shorter.
Waxing Crescent, 6% of the Moon is Illuminated
Today
Waxing Crescent
Oct 30
First Quarter
Nov 6
Full
Nov 14
Last Quarter
Nov 22
New

Today's Extremes

State Highs State Lows

Community

WunderPhotos

Upload Photos

1,765,127 photos uploaded!

Nearby

Snow Depth

Station Depth Elevation
Ward Mountain 0 in 9200 ft
Diamond Peak 1 in 8000 ft
Corral Canyon 0 in 8500 ft
Green Mountain 1 in 8000 ft
Lamoille #3 1 in 7700 ft

Earthquake Activity

City Distance Mag. Time & Date
No recent earthquake activity has been reported nearby.
Minimum magnitude displayed is 2.5.

Coastal Water Temperatures

Place Temperature
No Stations Reporting

Nearby Weather Stations